sensor_id;sensor_type;location;lat;lon;timestamp;noise_LAeq;noise_LA_min;noise_LA_max;noise_LA01;noise_LA95
76339;Laerm;26644;50.248;19.032;2023-04-06T00:00:12;47.81;43.22;59.56;;
76339;Laerm;26644;50.248;19.032;2023-04-06T00:03:17;48.27;44.54;53.05;;
76339;Laerm;26644;50.248;19.032;2023-04-06T00:06:22;48.75;44.15;53.75;;
76339;Laerm;26644;50.248;19.032;2023-04-06T00:09:28;47.86;43.68;53.22;;
76339;Laerm;26644;50.248;19.032;2023-04-06T00:12:36;49.93;44.59;63.07;;
76339;Laerm;26644;50.248;19.032;2023-04-06T00:15:40;48.13;43.77;52.18;;
76339;Laerm;26644;50.248;19.032;2023-04-06T00:18:46;47.25;43.73;52.74;;
76339;Laerm;26644;50.248;19.032;2023-04-06T00:21:50;47.44;43.74;51.53;;
76339;Laerm;26644;50.248;19.032;2023-04-06T00:24:55;47.43;44.46;52.01;;
76339;Laerm;26644;50.248;19.032;2023-04-06T00:28:03;51.18;44.67;68.63;;
76339;Laerm;26644;50.248;19.032;2023-04-06T00:31:08;52.23;45.68;62.86;;
76339;Laerm;26644;50.248;19.032;2023-04-06T00:34:13;51.75;44.37;71.17;;
76339;Laerm;26644;50.248;19.032;2023-04-06T00:37:19;48.39;44.54;53.67;;
76339;Laerm;26644;50.248;19.032;2023-04-06T00:40:24;48.93;45.03;52.83;;
76339;Laerm;26644;50.248;19.032;2023-04-06T00:43:33;48.18;44.10;56.30;;
76339;Laerm;26644;50.248;19.032;2023-04-06T00:46:37;48.42;44.88;52.56;;
76339;Laerm;26644;50.248;19.032;2023-04-06T00:49:43;48.07;44.83;52.04;;
76339;Laerm;26644;50.248;19.032;2023-04-06T00:52:48;47.28;43.50;51.35;;
76339;Laerm;26644;50.248;19.032;2023-04-06T00:55:59;47.60;43.89;51.57;;
76339;Laerm;26644;50.248;19.032;2023-04-06T00:59:12;46.95;43.88;50.43;;
76339;Laerm;26644;50.248;19.032;2023-04-06T01:02:18;47.79;44.05;53.25;;
76339;Laerm;26644;50.248;19.032;2023-04-06T01:05:25;47.50;43.95;53.54;;
76339;Laerm;26644;50.248;19.032;2023-04-06T01:08:34;47.95;44.39;51.72;;
76339;Laerm;26644;50.248;19.032;2023-04-06T01:11:53;48.40;44.51;58.52;;
76339;Laerm;26644;50.248;19.032;2023-04-06T01:15:09;48.36;44.44;52.07;;
76339;Laerm;26644;50.248;19.032;2023-04-06T01:18:17;48.01;43.11;53.37;;
76339;Laerm;26644;50.248;19.032;2023-04-06T01:21:33;47.76;44.24;51.58;;
76339;Laerm;26644;50.248;19.032;2023-04-06T01:24:56;48.02;45.00;51.14;;
76339;Laerm;26644;50.248;19.032;2023-04-06T01:28:20;47.85;44.11;52.02;;
76339;Laerm;26644;50.248;19.032;2023-04-06T01:31:39;49.03;44.97;53.46;;
76339;Laerm;26644;50.248;19.032;2023-04-06T01:34:45;50.48;46.80;61.95;;
76339;Laerm;26644;50.248;19.032;2023-04-06T01:37:49;49.79;45.82;59.55;;
76339;Laerm;26644;50.248;19.032;2023-04-06T01:41:04;49.06;45.80;53.92;;
76339;Laerm;26644;50.248;19.032;2023-04-06T01:44:20;48.91;45.34;54.87;;
76339;Laerm;26644;50.248;19.032;2023-04-06T01:47:35;49.01;45.58;53.25;;
76339;Laerm;26644;50.248;19.032;2023-04-06T01:50:41;49.73;46.69;53.36;;
76339;Laerm;26644;50.248;19.032;2023-04-06T01:53:49;49.26;45.32;56.26;;
76339;Laerm;26644;50.248;19.032;2023-04-06T01:57:01;49.32;45.00;61.86;;
76339;Laerm;26644;50.248;19.032;2023-04-06T02:00:12;49.87;45.54;57.34;;
76339;Laerm;26644;50.248;19.032;2023-04-06T02:03:23;49.11;45.17;53.39;;
76339;Laerm;26644;50.248;19.032;2023-04-06T02:06:38;49.33;45.52;54.95;;
76339;Laerm;26644;50.248;19.032;2023-04-06T02:09:46;48.34;44.55;52.30;;
76339;Laerm;26644;50.248;19.032;2023-04-06T02:13:01;48.23;44.59;56.93;;
76339;Laerm;26644;50.248;19.032;2023-04-06T02:16:07;48.75;44.89;54.91;;
76339;Laerm;26644;50.248;19.032;2023-04-06T02:19:11;48.11;44.33;54.68;;
76339;Laerm;26644;50.248;19.032;2023-04-06T02:22:19;48.68;44.81;60.43;;
76339;Laerm;26644;50.248;19.032;2023-04-06T02:25:23;48.83;44.49;56.16;;
76339;Laerm;26644;50.248;19.032;2023-04-06T02:28:31;48.78;44.67;53.01;;
76339;Laerm;26644;50.248;19.032;2023-04-06T02:31:36;48.92;44.76;53.36;;
76339;Laerm;26644;50.248;19.032;2023-04-06T02:34:43;48.86;45.68;52.90;;
76339;Laerm;26644;50.248;19.032;2023-04-06T02:37:48;49.23;45.48;52.89;;
76339;Laerm;26644;50.248;19.032;2023-04-06T02:40:54;49.23;45.31;57.23;;
76339;Laerm;26644;50.248;19.032;2023-04-06T02:44:07;49.14;45.61;57.60;;
76339;Laerm;26644;50.248;19.032;2023-04-06T02:47:17;51.40;47.35;61.69;;
76339;Laerm;26644;50.248;19.032;2023-04-06T02:50:24;50.50;47.19;60.52;;
76339;Laerm;26644;50.248;19.032;2023-04-06T02:53:35;50.54;47.10;54.72;;
76339;Laerm;26644;50.248;19.032;2023-04-06T02:56:40;50.76;46.74;59.72;;
76339;Laerm;26644;50.248;19.032;2023-04-06T02:59:49;50.11;46.66;57.39;;
76339;Laerm;26644;50.248;19.032;2023-04-06T03:02:59;51.39;46.88;55.94;;
76339;Laerm;26644;50.248;19.032;2023-04-06T03:06:05;50.54;46.90;56.76;;
76339;Laerm;26644;50.248;19.032;2023-04-06T03:09:10;50.00;46.69;55.28;;
76339;Laerm;26644;50.248;19.032;2023-04-06T03:12:18;50.21;47.04;55.62;;
76339;Laerm;26644;50.248;19.032;2023-04-06T03:15:51;51.20;47.99;56.18;;
76339;Laerm;26644;50.248;19.032;2023-04-06T03:18:58;51.21;48.07;56.52;;
76339;Laerm;26644;50.248;19.032;2023-04-06T03:22:03;51.74;48.47;55.41;;
76339;Laerm;26644;50.248;19.032;2023-04-06T03:25:09;51.63;48.30;58.48;;
76339;Laerm;26644;50.248;19.032;2023-04-06T03:28:15;51.74;47.72;63.10;;
76339;Laerm;26644;50.248;19.032;2023-04-06T03:31:31;51.63;48.34;57.45;;
76339;Laerm;26644;50.248;19.032;2023-04-06T03:34:50;52.24;48.64;57.90;;
76339;Laerm;26644;50.248;19.032;2023-04-06T03:37:55;52.43;49.34;57.36;;
76339;Laerm;26644;50.248;19.032;2023-04-06T03:41:02;52.91;49.09;59.62;;
76339;Laerm;26644;50.248;19.032;2023-04-06T03:44:07;52.80;49.82;59.62;;
76339;Laerm;26644;50.248;19.032;2023-04-06T03:47:15;52.68;49.92;62.23;;
76339;Laerm;26644;50.248;19.032;2023-04-06T03:50:22;53.65;50.03;66.35;;
76339;Laerm;26644;50.248;19.032;2023-04-06T03:53:26;53.11;49.87;60.72;;
76339;Laerm;26644;50.248;19.032;2023-04-06T03:56:32;52.57;49.88;57.31;;
76339;Laerm;26644;50.248;19.032;2023-04-06T03:59:36;53.07;49.70;55.98;;
76339;Laerm;26644;50.248;19.032;2023-04-06T04:02:44;52.68;49.78;58.46;;
76339;Laerm;26644;50.248;19.032;2023-04-06T04:05:49;52.98;49.24;58.29;;
76339;Laerm;26644;50.248;19.032;2023-04-06T04:08:55;53.35;49.92;59.10;;
76339;Laerm;26644;50.248;19.032;2023-04-06T04:12:00;52.88;49.94;60.23;;
76339;Laerm;26644;50.248;19.032;2023-04-06T04:15:08;53.49;50.52;61.92;;
76339;Laerm;26644;50.248;19.032;2023-04-06T04:18:15;53.46;50.41;57.92;;
76339;Laerm;26644;50.248;19.032;2023-04-06T04:21:21;54.53;51.26;60.96;;
76339;Laerm;26644;50.248;19.032;2023-04-06T04:24:27;53.97;51.03;57.65;;
76339;Laerm;26644;50.248;19.032;2023-04-06T04:27:32;54.02;51.12;57.68;;
76339;Laerm;26644;50.248;19.032;2023-04-06T04:30:37;54.20;51.49;61.05;;
76339;Laerm;26644;50.248;19.032;2023-04-06T04:33:48;54.54;51.99;62.57;;
76339;Laerm;26644;50.248;19.032;2023-04-06T04:37:00;54.91;51.46;65.04;;
76339;Laerm;26644;50.248;19.032;2023-04-06T04:40:22;54.66;51.44;67.02;;
76339;Laerm;26644;50.248;19.032;2023-04-06T04:43:41;55.04;51.40;67.83;;
76339;Laerm;26644;50.248;19.032;2023-04-06T04:46:48;55.26;51.63;74.72;;
76339;Laerm;26644;50.248;19.032;2023-04-06T04:49:59;56.72;52.30;70.33;;
76339;Laerm;26644;50.248;19.032;2023-04-06T04:53:06;58.54;54.09;74.30;;
76339;Laerm;26644;50.248;19.032;2023-04-06T04:56:11;57.51;52.53;69.74;;
76339;Laerm;26644;50.248;19.032;2023-04-06T04:59:17;55.23;51.11;68.00;;
76339;Laerm;26644;50.248;19.032;2023-04-06T05:02:29;54.21;51.33;59.05;;
76339;Laerm;26644;50.248;19.032;2023-04-06T05:05:54;54.75;51.30;59.63;;
76339;Laerm;26644;50.248;19.032;2023-04-06T05:09:02;54.21;50.90;64.89;;
76339;Laerm;26644;50.248;19.032;2023-04-06T05:12:09;55.28;51.44;74.82;;
76339;Laerm;26644;50.248;19.032;2023-04-06T05:15:24;54.04;50.23;64.48;;
76339;Laerm;26644;50.248;19.032;2023-04-06T05:18:34;55.35;51.03;70.58;;
76339;Laerm;26644;50.248;19.032;2023-04-06T05:21:43;54.13;51.41;62.08;;
76339;Laerm;26644;50.248;19.032;2023-04-06T05:24:49;59.47;50.72;84.05;;
76339;Laerm;26644;50.248;19.032;2023-04-06T05:27:55;54.27;50.95;62.72;;
76339;Laerm;26644;50.248;19.032;2023-04-06T05:31:13;54.01;51.29;59.59;;
76339;Laerm;26644;50.248;19.032;2023-04-06T05:34:23;54.09;50.99;61.44;;
76339;Laerm;26644;50.248;19.032;2023-04-06T05:37:32;54.23;51.36;66.87;;
76339;Laerm;26644;50.248;19.032;2023-04-06T05:40:38;54.28;51.29;59.25;;
76339;Laerm;26644;50.248;19.032;2023-04-06T05:43:47;53.90;51.34;61.13;;
76339;Laerm;26644;50.248;19.032;2023-04-06T05:46:52;54.35;50.81;70.98;;
76339;Laerm;26644;50.248;19.032;2023-04-06T05:49:57;54.41;51.50;57.79;;
76339;Laerm;26644;50.248;19.032;2023-04-06T05:53:11;54.43;51.05;59.25;;
76339;Laerm;26644;50.248;19.032;2023-04-06T05:56:25;54.32;50.98;60.46;;
76339;Laerm;26644;50.248;19.032;2023-04-06T05:59:31;54.35;50.88;68.33;;
76339;Laerm;26644;50.248;19.032;2023-04-06T06:02:38;57.60;50.22;76.64;;
76339;Laerm;26644;50.248;19.032;2023-04-06T06:05:49;53.54;49.45;69.20;;
76339;Laerm;26644;50.248;19.032;2023-04-06T06:09:05;53.07;49.36;60.37;;
76339;Laerm;26644;50.248;19.032;2023-04-06T06:12:16;53.19;49.40;59.37;;
76339;Laerm;26644;50.248;19.032;2023-04-06T06:15:21;52.70;49.24;60.85;;
76339;Laerm;26644;50.248;19.032;2023-04-06T06:18:27;53.50;49.94;75.82;;
76339;Laerm;26644;50.248;19.032;2023-04-06T06:21:32;54.36;49.10;75.06;;
76339;Laerm;26644;50.248;19.032;2023-04-06T06:24:43;52.92;49.35;68.99;;
76339;Laerm;26644;50.248;19.032;2023-04-06T06:27:49;55.92;49.82;65.35;;
76339;Laerm;26644;50.248;19.032;2023-04-06T06:30:55;53.35;48.91;65.27;;
76339;Laerm;26644;50.248;19.032;2023-04-06T06:34:01;52.48;48.87;61.31;;
76339;Laerm;26644;50.248;19.032;2023-04-06T06:37:07;52.50;48.76;60.61;;
76339;Laerm;26644;50.248;19.032;2023-04-06T06:40:17;55.18;48.60;78.60;;
76339;Laerm;26644;50.248;19.032;2023-04-06T06:43:25;52.80;48.73;58.18;;
76339;Laerm;26644;50.248;19.032;2023-04-06T06:46:43;52.33;48.83;66.13;;
76339;Laerm;26644;50.248;19.032;2023-04-06T06:49:48;53.40;49.08;78.14;;
76339;Laerm;26644;50.248;19.032;2023-04-06T06:52:53;52.90;48.66;69.43;;
76339;Laerm;26644;50.248;19.032;2023-04-06T06:56:01;53.50;49.35;62.81;;
76339;Laerm;26644;50.248;19.032;2023-04-06T06:59:06;52.38;48.25;63.95;;
76339;Laerm;26644;50.248;19.032;2023-04-06T07:02:11;52.31;48.29;63.41;;
76339;Laerm;26644;50.248;19.032;2023-04-06T07:05:17;52.72;48.65;70.02;;
76339;Laerm;26644;50.248;19.032;2023-04-06T07:08:23;52.71;48.87;62.47;;
76339;Laerm;26644;50.248;19.032;2023-04-06T07:11:31;52.11;49.12;63.20;;
76339;Laerm;26644;50.248;19.032;2023-04-06T07:14:36;53.37;49.47;61.81;;
76339;Laerm;26644;50.248;19.032;2023-04-06T07:17:41;52.39;48.93;62.04;;
76339;Laerm;26644;50.248;19.032;2023-04-06T07:20:47;52.74;49.22;61.76;;
76339;Laerm;26644;50.248;19.032;2023-04-06T07:23:53;52.97;49.06;63.50;;
76339;Laerm;26644;50.248;19.032;2023-04-06T07:27:00;52.62;48.48;64.27;;
76339;Laerm;26644;50.248;19.032;2023-04-06T07:30:08;52.35;48.90;60.68;;
76339;Laerm;26644;50.248;19.032;2023-04-06T07:33:12;55.41;49.02;71.58;;
76339;Laerm;26644;50.248;19.032;2023-04-06T07:36:18;56.43;49.70;76.92;;
76339;Laerm;26644;50.248;19.032;2023-04-06T07:39:23;54.49;48.11;73.68;;
76339;Laerm;26644;50.248;19.032;2023-04-06T07:42:33;53.80;49.06;73.50;;
76339;Laerm;26644;50.248;19.032;2023-04-06T07:45:40;52.40;48.73;62.82;;
76339;Laerm;26644;50.248;19.032;2023-04-06T07:48:46;53.41;49.09;66.81;;
76339;Laerm;26644;50.248;19.032;2023-04-06T07:51:51;55.26;50.14;63.46;;
76339;Laerm;26644;50.248;19.032;2023-04-06T07:54:57;56.83;52.00;73.73;;
76339;Laerm;26644;50.248;19.032;2023-04-06T07:58:04;57.98;52.55;78.36;;
76339;Laerm;26644;50.248;19.032;2023-04-06T08:01:10;54.17;50.97;64.68;;
76339;Laerm;26644;50.248;19.032;2023-04-06T08:04:14;54.60;49.70;71.21;;
76339;Laerm;26644;50.248;19.032;2023-04-06T08:07:20;53.75;49.43;70.39;;
76339;Laerm;26644;50.248;19.032;2023-04-06T08:10:24;52.94;49.31;60.88;;
76339;Laerm;26644;50.248;19.032;2023-04-06T08:13:33;52.76;49.27;61.38;;
76339;Laerm;26644;50.248;19.032;2023-04-06T08:16:37;53.85;49.40;69.42;;
76339;Laerm;26644;50.248;19.032;2023-04-06T08:19:43;52.37;48.61;61.91;;
76339;Laerm;26644;50.248;19.032;2023-04-06T08:22:48;52.67;49.38;63.79;;
76339;Laerm;26644;50.248;19.032;2023-04-06T08:25:54;52.98;49.29;64.83;;
76339;Laerm;26644;50.248;19.032;2023-04-06T08:29:01;52.31;48.93;59.67;;
76339;Laerm;26644;50.248;19.032;2023-04-06T08:32:09;52.79;48.46;67.27;;
76339;Laerm;26644;50.248;19.032;2023-04-06T08:35:14;54.04;48.31;71.26;;
76339;Laerm;26644;50.248;19.032;2023-04-06T08:38:19;55.61;48.63;76.10;;
76339;Laerm;26644;50.248;19.032;2023-04-06T08:41:24;54.97;49.52;66.44;;
76339;Laerm;26644;50.248;19.032;2023-04-06T08:44:33;57.75;49.75;71.53;;
76339;Laerm;26644;50.248;19.032;2023-04-06T08:47:40;54.14;49.53;68.61;;
76339;Laerm;26644;50.248;19.032;2023-04-06T08:50:46;57.65;49.03;80.19;;
76339;Laerm;26644;50.248;19.032;2023-04-06T08:53:53;58.76;48.56;79.54;;
76339;Laerm;26644;50.248;19.032;2023-04-06T08:57:03;55.40;48.91;76.86;;
76339;Laerm;26644;50.248;19.032;2023-04-06T09:00:14;53.44;49.19;66.13;;
76339;Laerm;26644;50.248;19.032;2023-04-06T09:03:22;54.62;48.22;74.16;;
76339;Laerm;26644;50.248;19.032;2023-04-06T09:06:27;54.44;49.20;72.35;;
76339;Laerm;26644;50.248;19.032;2023-04-06T09:09:32;54.44;48.31;71.89;;
76339;Laerm;26644;50.248;19.032;2023-04-06T09:12:37;54.39;49.66;70.10;;
76339;Laerm;26644;50.248;19.032;2023-04-06T09:15:45;55.85;48.17;76.47;;
76339;Laerm;26644;50.248;19.032;2023-04-06T09:18:50;54.48;48.55;68.18;;
76339;Laerm;26644;50.248;19.032;2023-04-06T09:22:03;53.70;48.69;70.32;;
76339;Laerm;26644;50.248;19.032;2023-04-06T09:25:17;53.72;48.45;70.49;;
76339;Laerm;26644;50.248;19.032;2023-04-06T09:28:22;52.73;48.90;66.39;;
76339;Laerm;26644;50.248;19.032;2023-04-06T09:31:31;53.00;48.61;68.29;;
76339;Laerm;26644;50.248;19.032;2023-04-06T09:34:38;52.50;48.60;60.22;;
76339;Laerm;26644;50.248;19.032;2023-04-06T09:37:43;55.20;49.65;66.73;;
76339;Laerm;26644;50.248;19.032;2023-04-06T09:40:50;53.52;49.61;70.98;;
76339;Laerm;26644;50.248;19.032;2023-04-06T09:44:03;54.57;49.14;69.76;;
76339;Laerm;26644;50.248;19.032;2023-04-06T09:47:11;54.71;48.47;72.68;;
76339;Laerm;26644;50.248;19.032;2023-04-06T09:50:19;55.56;48.63;72.94;;
76339;Laerm;26644;50.248;19.032;2023-04-06T09:53:28;54.99;49.67;75.96;;
76339;Laerm;26644;50.248;19.032;2023-04-06T09:56:45;60.78;49.94;84.88;;
76339;Laerm;26644;50.248;19.032;2023-04-06T10:00:02;54.98;49.27;79.11;;
76339;Laerm;26644;50.248;19.032;2023-04-06T10:03:36;53.46;49.30;69.22;;
76339;Laerm;26644;50.248;19.032;2023-04-06T10:06:47;53.87;49.30;71.69;;
76339;Laerm;26644;50.248;19.032;2023-04-06T10:09:56;60.72;48.84;86.52;;
76339;Laerm;26644;50.248;19.032;2023-04-06T10:13:02;54.90;48.93;70.96;;
76339;Laerm;26644;50.248;19.032;2023-04-06T10:16:08;52.69;48.55;76.68;;
76339;Laerm;26644;50.248;19.032;2023-04-06T10:19:28;52.92;48.19;64.73;;
76339;Laerm;26644;50.248;19.032;2023-04-06T10:22:43;55.17;49.70;72.49;;
76339;Laerm;26644;50.248;19.032;2023-04-06T10:25:57;53.28;49.12;64.95;;
76339;Laerm;26644;50.248;19.032;2023-04-06T10:29:04;51.82;48.15;62.10;;
76339;Laerm;26644;50.248;19.032;2023-04-06T10:32:09;54.26;49.43;69.38;;
76339;Laerm;26644;50.248;19.032;2023-04-06T10:35:16;55.61;49.14;74.80;;
76339;Laerm;26644;50.248;19.032;2023-04-06T10:38:34;53.96;49.63;70.44;;
76339;Laerm;26644;50.248;19.032;2023-04-06T10:41:43;53.31;49.86;62.88;;
76339;Laerm;26644;50.248;19.032;2023-04-06T10:44:50;53.79;48.76;73.31;;
76339;Laerm;26644;50.248;19.032;2023-04-06T10:47:55;53.58;48.42;71.01;;
76339;Laerm;26644;50.248;19.032;2023-04-06T10:51:09;54.13;49.82;69.15;;
76339;Laerm;26644;50.248;19.032;2023-04-06T10:54:17;53.47;49.84;71.04;;
76339;Laerm;26644;50.248;19.032;2023-04-06T10:57:28;53.94;48.99;65.45;;
76339;Laerm;26644;50.248;19.032;2023-04-06T11:00:34;57.09;50.04;76.67;;
76339;Laerm;26644;50.248;19.032;2023-04-06T11:03:43;54.54;49.94;66.77;;
76339;Laerm;26644;50.248;19.032;2023-04-06T11:06:51;53.90;49.84;71.95;;
76339;Laerm;26644;50.248;19.032;2023-04-06T11:09:57;53.24;48.92;63.58;;
76339;Laerm;26644;50.248;19.032;2023-04-06T11:13:02;53.56;49.16;64.47;;
76339;Laerm;26644;50.248;19.032;2023-04-06T11:16:13;54.41;48.97;63.20;;
76339;Laerm;26644;50.248;19.032;2023-04-06T11:19:18;53.84;49.85;75.33;;
76339;Laerm;26644;50.248;19.032;2023-04-06T11:22:26;54.32;48.57;76.84;;
76339;Laerm;26644;50.248;19.032;2023-04-06T11:25:31;53.33;48.40;69.54;;
76339;Laerm;26644;50.248;19.032;2023-04-06T11:28:37;52.56;49.03;68.26;;
76339;Laerm;26644;50.248;19.032;2023-04-06T11:31:45;53.06;48.71;65.07;;
76339;Laerm;26644;50.248;19.032;2023-04-06T11:34:51;52.49;48.95;61.23;;
76339;Laerm;26644;50.248;19.032;2023-04-06T11:37:58;53.15;49.68;63.30;;
76339;Laerm;26644;50.248;19.032;2023-04-06T11:41:03;53.46;50.12;63.36;;
76339;Laerm;26644;50.248;19.032;2023-04-06T11:44:08;53.09;49.63;67.49;;
76339;Laerm;26644;50.248;19.032;2023-04-06T11:47:14;53.33;48.58;71.45;;
76339;Laerm;26644;50.248;19.032;2023-04-06T11:50:18;54.42;49.03;77.77;;
76339;Laerm;26644;50.248;19.032;2023-04-06T11:53:27;53.51;49.46;70.54;;
76339;Laerm;26644;50.248;19.032;2023-04-06T11:56:32;53.79;49.36;70.47;;
76339;Laerm;26644;50.248;19.032;2023-04-06T11:59:38;53.99;49.47;69.02;;
76339;Laerm;26644;50.248;19.032;2023-04-06T12:02:47;53.65;49.13;74.36;;
76339;Laerm;26644;50.248;19.032;2023-04-06T12:05:53;54.19;48.99;72.87;;
76339;Laerm;26644;50.248;19.032;2023-04-06T12:09:00;54.96;50.14;65.28;;
76339;Laerm;26644;50.248;19.032;2023-04-06T12:12:05;54.11;49.71;73.75;;
76339;Laerm;26644;50.248;19.032;2023-04-06T12:15:10;53.12;49.03;62.92;;
76339;Laerm;26644;50.248;19.032;2023-04-06T12:18:16;56.03;49.80;75.05;;
76339;Laerm;26644;50.248;19.032;2023-04-06T12:21:20;52.76;48.56;65.12;;
76339;Laerm;26644;50.248;19.032;2023-04-06T12:24:29;52.99;48.66;68.02;;
76339;Laerm;26644;50.248;19.032;2023-04-06T12:27:33;54.42;48.81;72.68;;
76339;Laerm;26644;50.248;19.032;2023-04-06T12:30:39;54.42;49.16;78.53;;
76339;Laerm;26644;50.248;19.032;2023-04-06T12:33:46;65.98;48.75;86.07;;
76339;Laerm;26644;50.248;19.032;2023-04-06T12:36:51;53.39;48.75;67.03;;
76339;Laerm;26644;50.248;19.032;2023-04-06T12:40:00;53.16;48.62;68.50;;
76339;Laerm;26644;50.248;19.032;2023-04-06T12:43:06;53.26;49.50;66.01;;
76339;Laerm;26644;50.248;19.032;2023-04-06T12:46:11;53.42;48.86;65.83;;
76339;Laerm;26644;50.248;19.032;2023-04-06T12:49:17;54.39;49.78;65.66;;
76339;Laerm;26644;50.248;19.032;2023-04-06T12:52:21;53.29;49.52;73.60;;
76339;Laerm;26644;50.248;19.032;2023-04-06T12:55:30;53.33;49.41;63.79;;
76339;Laerm;26644;50.248;19.032;2023-04-06T12:58:37;52.81;48.79;65.74;;
76339;Laerm;26644;50.248;19.032;2023-04-06T13:01:43;53.05;49.15;61.59;;
76339;Laerm;26644;50.248;19.032;2023-04-06T13:04:49;53.84;49.54;62.19;;
76339;Laerm;26644;50.248;19.032;2023-04-06T13:07:54;54.00;50.10;63.16;;
76339;Laerm;26644;50.248;19.032;2023-04-06T13:11:01;53.99;50.15;67.47;;
76339;Laerm;26644;50.248;19.032;2023-04-06T13:14:07;54.88;50.57;63.20;;
76339;Laerm;26644;50.248;19.032;2023-04-06T13:17:11;53.82;49.94;63.24;;
76339;Laerm;26644;50.248;19.032;2023-04-06T13:20:17;53.48;49.69;63.49;;
76339;Laerm;26644;50.248;19.032;2023-04-06T13:23:22;52.57;49.25;61.37;;
76339;Laerm;26644;50.248;19.032;2023-04-06T13:26:30;53.13;49.01;61.62;;
76339;Laerm;26644;50.248;19.032;2023-04-06T13:29:35;54.28;50.08;67.24;;
76339;Laerm;26644;50.248;19.032;2023-04-06T13:32:40;55.09;49.97;70.25;;
76339;Laerm;26644;50.248;19.032;2023-04-06T13:35:45;53.35;49.44;61.81;;
76339;Laerm;26644;50.248;19.032;2023-04-06T13:38:50;53.97;49.15;65.08;;
76339;Laerm;26644;50.248;19.032;2023-04-06T13:41:59;63.48;49.60;93.71;;
76339;Laerm;26644;50.248;19.032;2023-04-06T13:45:06;53.02;49.44;71.01;;
76339;Laerm;26644;50.248;19.032;2023-04-06T13:48:11;53.54;49.98;63.36;;
76339;Laerm;26644;50.248;19.032;2023-04-06T13:51:16;52.48;48.83;66.31;;
76339;Laerm;26644;50.248;19.032;2023-04-06T13:54:21;55.02;49.92;71.19;;
76339;Laerm;26644;50.248;19.032;2023-04-06T13:57:29;53.29;49.51;64.94;;
76339;Laerm;26644;50.248;19.032;2023-04-06T14:00:33;53.42;49.04;59.73;;
76339;Laerm;26644;50.248;19.032;2023-04-06T14:03:39;52.53;48.66;66.13;;
76339;Laerm;26644;50.248;19.032;2023-04-06T14:06:46;54.62;50.02;66.45;;
76339;Laerm;26644;50.248;19.032;2023-04-06T14:09:52;53.44;49.16;65.89;;
76339;Laerm;26644;50.248;19.032;2023-04-06T14:12:59;54.33;51.15;61.16;;
76339;Laerm;26644;50.248;19.032;2023-04-06T14:16:05;53.93;49.63;63.24;;
76339;Laerm;26644;50.248;19.032;2023-04-06T14:19:10;54.41;49.78;62.71;;
76339;Laerm;26644;50.248;19.032;2023-04-06T14:22:17;53.80;49.77;63.18;;
76339;Laerm;26644;50.248;19.032;2023-04-06T14:25:22;60.22;49.96;90.26;;
76339;Laerm;26644;50.248;19.032;2023-04-06T14:28:30;54.14;50.33;61.99;;
76339;Laerm;26644;50.248;19.032;2023-04-06T14:31:35;54.84;50.47;65.71;;
76339;Laerm;26644;50.248;19.032;2023-04-06T14:34:40;53.95;49.32;67.47;;
76339;Laerm;26644;50.248;19.032;2023-04-06T14:37:45;52.91;49.61;63.84;;
76339;Laerm;26644;50.248;19.032;2023-04-06T14:40:50;53.34;49.85;61.04;;
76339;Laerm;26644;50.248;19.032;2023-04-06T14:43:57;53.28;49.82;61.27;;
76339;Laerm;26644;50.248;19.032;2023-04-06T14:47:02;54.11;50.41;58.34;;
76339;Laerm;26644;50.248;19.032;2023-04-06T14:50:09;53.27;50.14;62.28;;
76339;Laerm;26644;50.248;19.032;2023-04-06T14:53:14;53.99;50.54;65.05;;
76339;Laerm;26644;50.248;19.032;2023-04-06T14:56:20;53.16;49.65;62.98;;
76339;Laerm;26644;50.248;19.032;2023-04-06T14:59:28;53.32;50.29;62.18;;
76339;Laerm;26644;50.248;19.032;2023-04-06T15:02:34;52.92;49.67;59.55;;
76339;Laerm;26644;50.248;19.032;2023-04-06T15:05:39;52.74;49.69;59.58;;
76339;Laerm;26644;50.248;19.032;2023-04-06T15:08:45;53.62;50.27;67.97;;
76339;Laerm;26644;50.248;19.032;2023-04-06T15:11:50;53.47;50.25;61.67;;
76339;Laerm;26644;50.248;19.032;2023-04-06T15:14:57;52.72;49.62;59.16;;
76339;Laerm;26644;50.248;19.032;2023-04-06T15:18:03;53.09;49.49;63.26;;
76339;Laerm;26644;50.248;19.032;2023-04-06T15:21:08;53.08;49.32;57.04;;
76339;Laerm;26644;50.248;19.032;2023-04-06T15:24:13;53.15;49.32;66.67;;
76339;Laerm;26644;50.248;19.032;2023-04-06T15:27:17;52.80;49.36;63.95;;
76339;Laerm;26644;50.248;19.032;2023-04-06T15:30:25;53.48;50.14;59.10;;
76339;Laerm;26644;50.248;19.032;2023-04-06T15:33:30;53.26;50.07;64.03;;
76339;Laerm;26644;50.248;19.032;2023-04-06T15:36:35;52.78;49.83;63.52;;
76339;Laerm;26644;50.248;19.032;2023-04-06T15:39:40;53.54;50.17;68.03;;
76339;Laerm;26644;50.248;19.032;2023-04-06T15:42:45;53.36;50.24;63.00;;
76339;Laerm;26644;50.248;19.032;2023-04-06T15:45:52;53.88;50.09;63.12;;
76339;Laerm;26644;50.248;19.032;2023-04-06T15:48:58;53.62;49.84;63.50;;
76339;Laerm;26644;50.248;19.032;2023-04-06T15:52:02;53.34;49.68;64.48;;
76339;Laerm;26644;50.248;19.032;2023-04-06T15:55:09;52.76;49.32;63.32;;
76339;Laerm;26644;50.248;19.032;2023-04-06T15:58:13;53.80;49.97;71.17;;
76339;Laerm;26644;50.248;19.032;2023-04-06T16:01:21;53.16;49.57;62.80;;
76339;Laerm;26644;50.248;19.032;2023-04-06T16:04:26;52.73;49.06;59.54;;
76339;Laerm;26644;50.248;19.032;2023-04-06T16:07:32;52.37;48.61;56.48;;
76339;Laerm;26644;50.248;19.032;2023-04-06T16:10:37;52.36;49.01;59.41;;
76339;Laerm;26644;50.248;19.032;2023-04-06T16:13:42;52.31;48.78;65.38;;
76339;Laerm;26644;50.248;19.032;2023-04-06T16:16:49;52.81;49.00;66.22;;
76339;Laerm;26644;50.248;19.032;2023-04-06T16:19:56;53.57;47.64;65.21;;
76339;Laerm;26644;50.248;19.032;2023-04-06T16:23:00;52.74;48.15;61.96;;
76339;Laerm;26644;50.248;19.032;2023-04-06T16:26:11;52.29;48.18;58.00;;
76339;Laerm;26644;50.248;19.032;2023-04-06T16:29:15;51.51;47.92;59.98;;
76339;Laerm;26644;50.248;19.032;2023-04-06T16:32:23;52.00;47.94;68.44;;
76339;Laerm;26644;50.248;19.032;2023-04-06T16:35:28;52.72;49.08;66.97;;
76339;Laerm;26644;50.248;19.032;2023-04-06T16:38:34;52.52;48.58;66.48;;
76339;Laerm;26644;50.248;19.032;2023-04-06T16:41:39;51.77;48.29;61.14;;
76339;Laerm;26644;50.248;19.032;2023-04-06T16:44:44;52.29;48.61;63.96;;
76339;Laerm;26644;50.248;19.032;2023-04-06T16:47:52;54.61;49.34;67.92;;
76339;Laerm;26644;50.248;19.032;2023-04-06T16:50:57;52.79;47.58;60.13;;
76339;Laerm;26644;50.248;19.032;2023-04-06T16:54:02;51.79;48.32;59.41;;
76339;Laerm;26644;50.248;19.032;2023-04-06T16:57:08;52.65;48.00;65.12;;
76339;Laerm;26644;50.248;19.032;2023-04-06T17:00:14;51.17;47.20;65.92;;
76339;Laerm;26644;50.248;19.032;2023-04-06T17:03:22;52.79;48.75;58.86;;
76339;Laerm;26644;50.248;19.032;2023-04-06T17:06:27;51.71;47.39;58.23;;
76339;Laerm;26644;50.248;19.032;2023-04-06T17:09:32;52.05;48.55;60.50;;
76339;Laerm;26644;50.248;19.032;2023-04-06T17:12:36;52.35;49.17;61.43;;